createdAt,value
2019-03-10T00:04:26.472Z,2.60
2019-03-10T00:07:10.532Z,2.40
2019-03-10T00:09:43.574Z,3.00
2019-03-10T00:12:28.536Z,2.87
2019-03-10T00:15:12.907Z,2.83
2019-03-10T00:17:57.537Z,2.73
2019-03-10T00:20:41.794Z,2.90
2019-03-10T00:26:13.359Z,3.62
2019-03-10T00:28:57.334Z,3.20
2019-03-10T00:31:41.294Z,3.80
2019-03-10T00:34:24.873Z,3.63
2019-03-10T00:37:10.625Z,4.22
2019-03-10T00:40:14.811Z,3.60
2019-03-10T00:43:05.157Z,3.47
2019-03-10T00:46:11.017Z,4.03
2019-03-10T00:49:01.202Z,3.87
2019-03-10T00:52:05.343Z,4.28
2019-03-10T00:54:50.600Z,3.30
2019-03-10T00:57:34.703Z,3.33
2019-03-10T01:00:19.563Z,3.58
2019-03-10T01:03:03.428Z,3.60
2019-03-10T01:05:48.118Z,3.67
2019-03-10T01:08:32.947Z,3.33
2019-03-10T01:11:16.800Z,3.10
2019-03-10T01:14:01.273Z,3.27
2019-03-10T01:16:45.009Z,3.37
2019-03-10T01:19:28.988Z,3.90
2019-03-10T01:22:12.694Z,2.98
2019-03-10T01:24:56.271Z,3.30
2019-03-10T01:27:40.547Z,2.80
2019-03-10T01:30:26.505Z,3.27
2019-03-10T01:36:15.984Z,2.60
2019-03-10T01:38:59.544Z,2.70
2019-03-10T01:41:43.620Z,2.83
2019-03-10T01:44:27.943Z,3.13
2019-03-10T01:47:12.431Z,2.30
2019-03-10T01:49:55.979Z,2.83
2019-03-10T01:52:28.186Z,2.60
2019-03-10T01:55:12.573Z,2.47
2019-03-10T01:57:45.943Z,2.67
2019-03-10T02:00:29.804Z,2.63
2019-03-10T02:03:13.782Z,2.15
2019-03-10T02:05:57.321Z,2.37
2019-03-10T02:08:41.078Z,2.73
2019-03-10T02:11:25.380Z,2.30
2019-03-10T02:14:08.926Z,2.20
2019-03-10T02:16:53.326Z,2.50
2019-03-10T02:22:12.581Z,2.37
2019-03-10T02:27:57.241Z,1.83
2019-03-10T02:30:41.025Z,2.00
2019-03-10T02:36:16.175Z,1.80
2019-03-10T02:38:59.959Z,1.63
2019-03-10T02:41:43.871Z,2.00
2019-03-10T02:44:28.173Z,1.87
2019-03-10T02:47:11.828Z,2.00
2019-03-10T02:49:56.152Z,1.50
2019-03-10T02:52:40.592Z,3.20
2019-03-10T02:55:24.414Z,2.20
2019-03-10T02:58:08.480Z,2.80
2019-03-10T03:00:52.067Z,2.17
2019-03-10T03:03:24.831Z,2.63
2019-03-10T03:06:08.383Z,2.47
2019-03-10T03:08:52.909Z,2.12
2019-03-10T03:11:37.018Z,2.37
2019-03-10T03:14:21.485Z,2.27
2019-03-10T03:17:05.306Z,1.97
2019-03-10T03:19:49.218Z,2.67
2019-03-10T03:22:32.601Z,2.37
2019-03-10T03:25:16.225Z,2.40
2019-03-10T03:27:59.812Z,2.93
2019-03-10T03:30:44.312Z,2.87
2019-03-10T03:33:28.441Z,1.90
2019-03-10T03:39:21.755Z,2.60
2019-03-10T03:42:07.348Z,2.77
2019-03-10T03:44:53.743Z,2.67
2019-03-10T03:47:37.569Z,2.57
2019-03-10T03:50:22.470Z,2.90
2019-03-10T03:53:06.811Z,2.47
2019-03-10T03:55:53.031Z,2.85
2019-03-10T03:58:37.064Z,3.33
2019-03-10T04:04:31.486Z,2.33
2019-03-10T04:07:15.325Z,2.70
2019-03-10T04:09:59.894Z,2.90
2019-03-10T04:12:44.456Z,2.72
2019-03-10T04:15:29.052Z,2.08
2019-03-10T04:18:13.743Z,2.67
2019-03-10T04:20:57.699Z,2.63
2019-03-10T04:23:41.993Z,2.50
2019-03-10T04:26:28.655Z,3.35
2019-03-10T04:29:12.661Z,2.40
2019-03-10T04:31:44.897Z,3.53
2019-03-10T04:34:28.962Z,3.23
2019-03-10T04:37:13.258Z,2.40
2019-03-10T04:39:57.221Z,2.57
2019-03-10T04:42:41.776Z,3.07
2019-03-10T04:45:25.619Z,2.43
2019-03-10T04:48:09.672Z,3.20
2019-03-10T04:53:24.865Z,2.83
2019-03-10T04:56:28.247Z,2.93
2019-03-10T04:59:12.335Z,2.85
2019-03-10T05:01:56.426Z,2.92
2019-03-10T05:04:41.491Z,2.70
2019-03-10T05:07:26.066Z,2.90
2019-03-10T05:10:10.196Z,3.17
2019-03-10T05:12:54.672Z,2.57
2019-03-10T05:15:38.704Z,3.00
2019-03-10T05:18:23.590Z,2.95
2019-03-10T05:21:07.451Z,2.92
2019-03-10T05:23:51.457Z,2.43
2019-03-10T05:26:23.654Z,3.10
2019-03-10T05:29:07.573Z,2.97
2019-03-10T05:31:52.050Z,2.83
2019-03-10T05:34:24.500Z,3.10
2019-03-10T05:36:57.076Z,3.22
2019-03-10T05:39:41.858Z,3.17
2019-03-10T05:42:26.690Z,3.00
2019-03-10T05:48:13.637Z,3.15
2019-03-10T05:50:58.068Z,3.30
2019-03-10T05:53:41.976Z,2.77
2019-03-10T05:56:26.588Z,2.80
2019-03-10T05:59:10.864Z,3.00
2019-03-10T06:01:55.442Z,2.73
2019-03-10T06:04:39.983Z,3.33
2019-03-10T06:07:24.993Z,2.50
2019-03-10T06:10:10.442Z,2.70
2019-03-10T06:12:54.944Z,2.90
2019-03-10T06:15:39.390Z,2.60
2019-03-10T06:18:26.368Z,2.70
2019-03-10T06:21:10.359Z,3.13
2019-03-10T06:23:54.674Z,2.93
2019-03-10T06:29:26.197Z,2.50
2019-03-10T06:32:10.628Z,2.27
2019-03-10T06:34:54.439Z,2.47
2019-03-10T06:43:10.683Z,2.80
2019-03-10T06:45:58.146Z,2.90
2019-03-10T06:48:42.118Z,3.23
2019-03-10T06:51:26.084Z,2.87
2019-03-10T06:57:23.966Z,2.92
2019-03-10T07:00:08.665Z,2.33
2019-03-10T07:05:42.042Z,3.30
2019-03-10T07:08:26.045Z,2.60
2019-03-10T07:11:10.118Z,3.23
2019-03-10T07:16:30.467Z,3.63
2019-03-10T07:19:18.355Z,2.73
2019-03-10T07:22:03.127Z,2.37
2019-03-10T07:24:48.606Z,3.10
2019-03-10T07:31:01.783Z,2.57
2019-03-10T07:34:07.408Z,2.85
2019-03-10T07:40:33.055Z,2.60
2019-03-10T07:43:24.734Z,2.83
2019-03-10T07:46:27.602Z,2.80
2019-03-10T07:49:10.031Z,2.55
2019-03-10T07:52:25.454Z,3.13
2019-03-10T07:55:26.249Z,2.90
2019-03-10T07:58:42.191Z,2.60
2019-03-10T08:05:02.018Z,2.93
2019-03-10T08:11:29.496Z,3.35
2019-03-10T08:18:03.968Z,2.97
2019-03-10T08:21:10.022Z,3.75
2019-03-10T08:27:11.743Z,3.30
2019-03-10T08:33:47.951Z,3.70
2019-03-10T08:47:14.561Z,3.20
2019-03-10T08:53:13.873Z,3.67
2019-03-10T08:55:54.845Z,3.47
2019-03-10T08:58:50.763Z,3.50
2019-03-10T09:04:48.914Z,3.23
2019-03-10T09:10:36.367Z,3.90
2019-03-10T09:19:36.918Z,4.70
2019-03-10T09:22:16.211Z,3.30
2019-03-10T09:25:13.270Z,3.47
2019-03-10T09:31:10.711Z,3.47
2019-03-10T09:37:10.947Z,3.77
2019-03-10T09:40:14.783Z,3.77
2019-03-10T09:46:26.557Z,4.37
2019-03-10T09:49:29.820Z,3.77
2019-03-10T09:52:26.006Z,3.50
2019-03-10T09:55:22.219Z,4.03
2019-03-10T09:58:38.242Z,3.72
2019-03-10T10:04:49.967Z,3.80
2019-03-10T10:07:42.126Z,3.95
2019-03-10T10:10:45.559Z,3.60
2019-03-10T10:16:17.447Z,3.97
2019-03-10T10:19:20.148Z,4.70
2019-03-10T10:22:11.832Z,4.60
2019-03-10T10:25:14.641Z,3.80
2019-03-10T10:31:04.115Z,4.03
2019-03-10T10:34:13.353Z,3.80
2019-03-10T10:37:21.148Z,3.67
2019-03-10T10:40:19.238Z,3.67
2019-03-10T10:43:10.413Z,4.28
2019-03-10T10:46:28.360Z,4.00
2019-03-10T10:49:30.983Z,4.00
2019-03-10T10:52:37.985Z,3.80
2019-03-10T10:55:41.403Z,3.30
2019-03-10T10:58:38.312Z,3.43
2019-03-10T11:01:42.121Z,3.03
2019-03-10T11:04:45.751Z,2.90
2019-03-10T11:07:53.467Z,3.02
2019-03-10T11:14:29.425Z,2.90
2019-03-10T11:20:07.628Z,2.60
2019-03-10T11:23:11.169Z,2.75
2019-03-10T11:26:17.477Z,3.33
2019-03-10T11:32:13.088Z,2.80
2019-03-10T11:41:02.578Z,2.20
2019-03-10T11:43:54.754Z,2.30
2019-03-10T11:49:44.640Z,2.30
2019-03-10T11:55:36.287Z,2.03
2019-03-10T11:58:43.207Z,3.10
2019-03-10T12:01:46.149Z,2.58
2019-03-10T12:04:51.839Z,2.50
2019-03-10T12:07:55.228Z,2.43
2019-03-10T12:10:39.744Z,2.60
2019-03-10T12:13:23.801Z,2.47
2019-03-10T12:16:07.754Z,2.13
2019-03-10T12:18:51.505Z,2.40
2019-03-10T12:21:35.591Z,2.40
2019-03-10T12:24:20.087Z,2.45
2019-03-10T12:27:03.880Z,2.57
2019-03-10T12:29:49.489Z,2.00
2019-03-10T12:32:34.897Z,2.30
2019-03-10T12:35:18.788Z,2.00
2019-03-10T12:38:04.397Z,2.07
2019-03-10T12:40:48.458Z,2.37
2019-03-10T12:43:32.811Z,2.13
2019-03-10T12:46:17.612Z,2.07
2019-03-10T12:49:02.156Z,2.20
2019-03-10T12:51:47.093Z,2.40
2019-03-10T12:54:21.677Z,1.50
2019-03-10T12:57:06.156Z,1.30
2019-03-10T12:59:38.352Z,1.43
2019-03-10T13:02:22.588Z,1.72
2019-03-10T13:05:06.531Z,1.93
2019-03-10T13:07:50.309Z,1.93
2019-03-10T13:10:22.628Z,1.80
2019-03-10T13:13:07.121Z,1.90
2019-03-10T13:15:51.150Z,1.80
2019-03-10T13:18:35.817Z,1.90
2019-03-10T13:21:21.521Z,1.70
2019-03-10T13:24:05.375Z,1.50
2019-03-10T13:26:49.563Z,1.77
2019-03-10T13:29:33.244Z,1.60
2019-03-10T13:32:17.349Z,1.47
2019-03-10T13:35:01.878Z,1.47
2019-03-10T13:37:46.085Z,1.80
2019-03-10T13:40:32.854Z,1.82
2019-03-10T13:43:16.854Z,1.60
2019-03-10T13:46:03.266Z,1.30
2019-03-10T13:51:49.766Z,1.83
2019-03-10T13:54:34.438Z,2.17
2019-03-10T13:57:20.542Z,3.00
2019-03-10T14:00:05.683Z,2.30
2019-03-10T14:02:51.126Z,2.50
2019-03-10T14:05:35.204Z,1.67
2019-03-10T14:08:19.686Z,1.60
2019-03-10T14:11:04.056Z,1.60
2019-03-10T14:13:49.605Z,1.20
2019-03-10T14:16:34.443Z,1.40
2019-03-10T14:19:19.953Z,0.90
2019-03-10T14:24:51.061Z,1.10
2019-03-10T14:27:35.706Z,1.43
2019-03-10T14:30:20.494Z,1.00
2019-03-10T14:33:04.475Z,1.33
2019-03-10T14:35:48.778Z,1.20
2019-03-10T14:38:32.841Z,1.00
2019-03-10T14:41:05.056Z,1.37
2019-03-10T14:43:49.289Z,1.60
2019-03-10T14:46:35.243Z,1.10
2019-03-10T14:49:23.594Z,1.00
2019-03-10T14:52:04.961Z,1.00
2019-03-10T14:54:48.722Z,1.02
2019-03-10T14:57:34.453Z,1.00
2019-03-10T15:00:19.860Z,1.30
2019-03-10T15:03:04.487Z,1.17
2019-03-10T15:05:36.952Z,0.93
2019-03-10T15:08:21.719Z,1.00
2019-03-10T15:11:05.927Z,0.97
2019-03-10T15:13:49.885Z,0.90
2019-03-10T15:16:33.700Z,1.17
2019-03-10T15:19:05.900Z,1.23
2019-03-10T15:21:50.626Z,1.20
2019-03-10T15:24:35.843Z,1.70
2019-03-10T15:27:23.255Z,1.40
2019-03-10T15:29:53.772Z,1.30
2019-03-10T15:32:38.298Z,1.57
2019-03-10T15:35:23.696Z,1.73
2019-03-10T15:38:08.082Z,1.67
2019-03-10T15:40:40.594Z,1.87
2019-03-10T15:43:26.661Z,1.62
2019-03-10T15:46:10.617Z,1.92
2019-03-10T15:48:54.428Z,2.20
2019-03-10T15:51:39.084Z,2.23
2019-03-10T15:54:24.386Z,2.50
2019-03-10T15:57:09.961Z,2.00
2019-03-10T15:59:54.251Z,1.85
2019-03-10T16:02:26.261Z,1.50
2019-03-10T16:05:10.412Z,1.60
2019-03-10T16:07:56.549Z,1.80
2019-03-10T16:10:40.553Z,1.63
2019-03-10T16:13:24.473Z,1.90
2019-03-10T16:16:09.323Z,1.77
2019-03-10T16:18:53.291Z,1.25
2019-03-10T16:21:37.854Z,1.90
2019-03-10T16:24:21.574Z,2.10
2019-03-10T16:27:05.981Z,2.40
2019-03-10T16:29:50.110Z,1.85
2019-03-10T16:32:34.308Z,2.00
2019-03-10T16:35:19.243Z,1.60
2019-03-10T16:38:03.720Z,1.60
2019-03-10T16:40:47.275Z,1.42
2019-03-10T16:43:29.895Z,1.50
2019-03-10T16:46:14.147Z,1.70
2019-03-10T16:48:58.304Z,1.40
2019-03-10T16:51:42.384Z,1.90
2019-03-10T16:54:29.047Z,1.40
2019-03-10T16:57:13.333Z,1.40
2019-03-10T16:59:57.719Z,1.53
2019-03-10T17:02:43.271Z,1.73
2019-03-10T17:05:26.900Z,1.57
2019-03-10T17:08:11.519Z,1.40
2019-03-10T17:10:57.501Z,1.80
2019-03-10T17:13:41.665Z,1.57
2019-03-10T17:19:27.923Z,1.27
2019-03-10T17:22:12.121Z,1.50
2019-03-10T17:24:58.411Z,1.50
2019-03-10T17:27:43.206Z,1.80
2019-03-10T17:30:32.318Z,1.20
2019-03-10T17:33:16.859Z,1.70
2019-03-10T17:36:01.836Z,2.33
2019-03-10T17:38:46.576Z,2.07
2019-03-10T17:41:30.699Z,2.73
2019-03-10T17:44:14.775Z,2.03
2019-03-10T17:46:59.003Z,2.08
2019-03-10T17:49:43.647Z,4.42
2019-03-10T17:52:34.657Z,3.40
2019-03-10T17:55:05.938Z,2.50
2019-03-10T17:57:49.790Z,2.35
2019-03-10T18:00:35.325Z,2.20
2019-03-10T18:03:20.038Z,1.98
2019-03-10T18:06:04.022Z,2.00
2019-03-10T18:08:48.828Z,2.30
2019-03-10T18:11:32.634Z,2.40
2019-03-10T18:14:17.190Z,2.22
2019-03-10T18:17:01.034Z,1.80
2019-03-10T18:19:45.177Z,2.33
2019-03-10T18:22:17.386Z,2.90
2019-03-10T18:24:49.567Z,1.60
2019-03-10T18:27:40.209Z,2.33
2019-03-10T18:30:16.077Z,2.70
2019-03-10T18:33:00.371Z,1.95
2019-03-10T18:35:44.832Z,4.17
2019-03-10T18:38:29.534Z,2.97
2019-03-10T18:41:15.915Z,2.40
2019-03-10T18:44:01.582Z,2.67
2019-03-10T18:46:45.607Z,3.27
2019-03-10T18:49:29.998Z,2.60
2019-03-10T18:52:14.055Z,3.77
2019-03-10T18:54:46.807Z,2.93
2019-03-10T18:57:20.297Z,3.85
2019-03-10T19:00:05.658Z,3.30
2019-03-10T19:02:49.662Z,2.80
2019-03-10T19:05:33.221Z,2.83
2019-03-10T19:08:16.839Z,2.60
2019-03-10T19:11:01.259Z,2.57
2019-03-10T19:13:47.241Z,2.40
2019-03-10T19:16:32.030Z,2.47
2019-03-10T19:19:16.571Z,2.23
2019-03-10T19:22:02.888Z,2.03
2019-03-10T19:24:52.995Z,3.03
2019-03-10T19:27:37.259Z,2.27
2019-03-10T19:30:12.660Z,2.15
2019-03-10T19:32:58.050Z,2.47
2019-03-10T19:35:41.893Z,3.00
2019-03-10T19:38:25.890Z,2.47
2019-03-10T19:41:09.861Z,2.15
2019-03-10T19:43:54.717Z,2.40
2019-03-10T19:46:40.970Z,2.43
2019-03-10T19:49:13.217Z,1.83
2019-03-10T19:51:57.347Z,2.53
2019-03-10T19:54:41.474Z,4.67
2019-03-10T19:57:26.490Z,3.97
2019-03-10T20:00:11.905Z,2.93
2019-03-10T20:02:56.254Z,3.60
2019-03-10T20:05:40.840Z,3.98
2019-03-10T20:08:24.862Z,2.40
2019-03-10T20:11:09.008Z,2.93
2019-03-10T20:13:53.116Z,2.40
2019-03-10T20:16:37.387Z,2.70
2019-03-10T20:19:09.627Z,2.37
2019-03-10T20:21:53.946Z,1.90
2019-03-10T20:24:38.079Z,2.83
2019-03-10T20:27:24.660Z,2.33
2019-03-10T20:30:10.389Z,2.97
2019-03-10T20:32:55.451Z,3.20
2019-03-10T20:38:27.293Z,2.93
2019-03-10T20:41:12.687Z,3.52
2019-03-10T20:43:56.658Z,2.90
2019-03-10T20:46:40.840Z,3.13
2019-03-10T20:49:24.801Z,3.83
2019-03-10T20:52:08.656Z,2.97
2019-03-10T20:54:54.559Z,3.37
2019-03-10T21:00:27.690Z,2.95
2019-03-10T21:03:12.167Z,3.08
2019-03-10T21:05:57.117Z,3.70
2019-03-10T21:08:43.639Z,3.20
2019-03-10T21:11:27.487Z,3.60
2019-03-10T21:14:10.971Z,3.97
2019-03-10T21:16:55.113Z,4.43
2019-03-10T21:19:39.869Z,4.50
2019-03-10T21:22:26.230Z,4.70
2019-03-10T21:25:11.345Z,4.80
2019-03-10T21:27:44.080Z,4.87
2019-03-10T21:30:27.922Z,5.03
2019-03-10T21:36:04.402Z,6.17
2019-03-10T21:38:36.768Z,5.63
2019-03-10T21:41:19.606Z,6.35
2019-03-10T21:43:53.318Z,6.60
2019-03-10T21:46:38.589Z,6.73
2019-03-10T21:49:22.684Z,6.35
2019-03-10T21:52:07.025Z,6.83
2019-03-10T21:54:50.536Z,6.20
2019-03-10T21:57:35.199Z,5.80
2019-03-10T22:00:19.986Z,5.17
2019-03-10T22:02:52.263Z,5.10
2019-03-10T22:05:36.279Z,5.80
2019-03-10T22:08:20.365Z,4.83
2019-03-10T22:11:04.782Z,4.60
2019-03-10T22:13:49.721Z,4.70
2019-03-10T22:16:35.098Z,4.53
2019-03-10T22:19:23.008Z,3.80
2019-03-10T22:22:04.017Z,4.17
2019-03-10T22:24:47.766Z,4.13
2019-03-10T22:27:20.216Z,4.10
2019-03-10T22:30:05.477Z,4.47
2019-03-10T22:35:36.264Z,4.77
2019-03-10T22:38:19.957Z,4.70
2019-03-10T22:41:04.394Z,4.87
2019-03-10T22:43:48.801Z,4.40
2019-03-10T22:49:20.326Z,4.53
2019-03-10T22:52:04.845Z,4.07
2019-03-10T22:54:49.392Z,3.65
2019-03-10T23:00:20.380Z,4.00
2019-03-10T23:03:06.131Z,3.50
2019-03-10T23:05:49.936Z,3.47
2019-03-10T23:08:33.551Z,3.10
2019-03-10T23:11:18.211Z,3.12
2019-03-10T23:14:04.306Z,3.30
2019-03-10T23:16:48.331Z,2.90
2019-03-10T23:19:32.479Z,2.83
2019-03-10T23:22:16.112Z,3.37
2019-03-10T23:25:01.742Z,3.40
2019-03-10T23:27:47.878Z,3.27
2019-03-10T23:30:31.755Z,2.92
2019-03-10T23:33:16.151Z,3.00
2019-03-10T23:36:00.809Z,2.90
2019-03-10T23:38:45.239Z,2.75
2019-03-10T23:41:29.129Z,2.50
2019-03-10T23:44:12.884Z,2.90
2019-03-10T23:46:56.715Z,3.00
2019-03-10T23:52:27.374Z,2.87
2019-03-10T23:55:11.351Z,2.82
2019-03-10T23:57:54.423Z,2.30
